Time;durP1;ratioP1;P1;durP2;ratioP2;P2;SDS_P1;SDS_P2;PMS_P1;PMS_P2;Temp;Humidity;BMP_temperature;BMP_pressure;BME280_temperature;BME280_humidity;BME280_pressure;Samples;Min_cycle;Max_cycle;Signal;HPM_P1;HPM_P2
2021/05/01 00:01:57;;;;;;;47.63;35.50;;;8.10;99.90;;;;;;5081088;28;20040;-64
2021/05/01 00:04:23;;;;;;;47.97;36.20;;;8.10;99.90;;;;;;5081948;28;20041;-64
2021/05/01 00:06:48;;;;;;;50.30;37.05;;;8.10;99.90;;;;;;5082711;28;20044;-65
2021/05/01 00:09:14;;;;;;;53.70;38.28;;;8.10;99.90;;;;;;5082596;28;20535;-64
2021/05/01 00:11:40;;;;;;;53.40;38.45;;;8.10;99.90;;;;;;5081514;28;20070;-64
2021/05/01 00:14:06;;;;;;;55.95;40.85;;;8.10;99.90;;;;;;5078761;28;20068;-64
2021/05/01 00:16:32;;;;;;;52.17;39.10;;;8.10;99.90;;;;;;5082183;28;20055;-64
2021/05/01 00:18:58;;;;;;;58.28;39.10;;;8.00;99.90;;;;;;5079577;28;20117;-65
2021/05/01 00:21:25;;;;;;;56.45;40.38;;;8.10;99.90;;;;;;5082545;28;20055;-64
2021/05/01 00:23:51;;;;;;;58.22;40.72;;;8.00;99.90;;;;;;5082759;28;20044;-64
2021/05/01 00:26:17;;;;;;;59.22;40.78;;;8.10;99.90;;;;;;5072100;28;20049;-65
2021/05/01 00:28:44;;;;;;;56.00;40.88;;;8.10;99.90;;;;;;5081988;28;20385;-65
2021/05/01 00:31:10;;;;;;;52.22;36.95;;;8.10;99.90;;;;;;5070313;28;20045;-64
2021/05/01 00:33:36;;;;;;;54.38;39.38;;;8.10;99.90;;;;;;5071805;28;20088;-64
2021/05/01 00:36:02;;;;;;;59.70;41.05;;;8.10;99.90;;;;;;5082390;28;20055;-64
2021/05/01 00:38:28;;;;;;;59.17;40.65;;;8.10;99.90;;;;;;5074947;28;20052;-64
2021/05/01 00:40:54;;;;;;;59.75;41.90;;;8.10;99.90;;;;;;5071651;28;20044;-64
2021/05/01 00:43:20;;;;;;;65.35;43.38;;;8.10;99.90;;;;;;5082026;28;20044;-64
2021/05/01 00:45:46;;;;;;;58.03;38.95;;;8.10;99.90;;;;;;5081921;28;20124;-64
2021/05/01 00:48:11;;;;;;;54.72;40.33;;;8.00;99.90;;;;;;5089414;28;20064;-65
2021/05/01 00:50:37;;;;;;;61.33;42.55;;;8.00;99.90;;;;;;5080983;28;20393;-64
2021/05/01 00:53:04;;;;;;;65.88;44.03;;;8.00;99.90;;;;;;5084389;28;20056;-65
2021/05/01 00:55:31;;;;;;;63.38;43.30;;;8.00;99.90;;;;;;5083928;28;20044;-64
2021/05/01 01:01:47;;;;;;;66.90;44.28;;;8.00;99.90;;;;;;5081575;28;20035;-64
2021/05/01 01:04:13;;;;;;;67.13;44.63;;;8.00;99.90;;;;;;5084036;28;20047;-64
2021/05/01 01:06:39;;;;;;;68.70;44.58;;;8.00;99.90;;;;;;5088471;28;20041;-64
2021/05/01 01:09:05;;;;;;;63.33;41.63;;;8.00;99.90;;;;;;5087120;28;20157;-64
2021/05/01 01:11:31;;;;;;;62.42;41.95;;;8.10;99.90;;;;;;5078316;28;20047;-64
2021/05/01 01:14:00;;;;;;;60.35;41.97;;;8.00;99.90;;;;;;5087023;28;20032;-64
2021/05/01 01:16:28;;;;;;;67.53;43.10;;;8.10;99.90;;;;;;5084861;28;20101;-65
2021/05/01 01:18:55;;;;;;;65.82;42.60;;;8.10;99.90;;;;;;5088250;28;20139;-65
2021/05/01 01:21:22;;;;;;;54.95;38.08;;;8.00;99.90;;;;;;5088115;28;20545;-66
2021/05/01 01:23:48;;;;;;;51.60;37.95;;;8.10;99.90;;;;;;5088730;28;20048;-65
2021/05/01 01:26:14;;;;;;;54.60;36.50;;;8.00;99.90;;;;;;5087986;28;20112;-64
2021/05/01 01:28:40;;;;;;;48.75;36.33;;;8.00;99.90;;;;;;5086637;28;20040;-65
2021/05/01 01:31:06;;;;;;;51.67;36.47;;;8.10;99.90;;;;;;5088457;28;20415;-64
2021/05/01 01:33:32;;;;;;;50.70;36.53;;;8.00;99.90;;;;;;5087687;28;20040;-64
2021/05/01 01:35:58;;;;;;;54.75;39.42;;;8.10;99.90;;;;;;5087850;28;20047;-65
2021/05/01 01:38:24;;;;;;;53.67;38.60;;;8.10;99.90;;;;;;5088394;28;20456;-65
2021/05/01 01:40:50;;;;;;;60.08;40.00;;;8.10;99.90;;;;;;5087728;28;20072;-64
2021/05/01 01:43:15;;;;;;;61.97;42.63;;;8.10;99.90;;;;;;5073706;28;20051;-65
2021/05/01 01:45:41;;;;;;;58.40;39.75;;;8.10;99.90;;;;;;5081018;28;20075;-65
2021/05/01 01:48:07;;;;;;;61.28;40.40;;;8.10;99.90;;;;;;5086911;28;20040;-65
2021/05/01 01:50:33;;;;;;;58.60;39.70;;;8.10;99.90;;;;;;5087046;28;20060;-66
2021/05/01 01:52:59;;;;;;;53.45;37.63;;;8.10;99.90;;;;;;5076330;28;20270;-65
2021/05/01 01:55:25;;;;;;;51.20;36.92;;;8.10;99.90;;;;;;5085501;28;20051;-65
2021/05/01 01:57:52;;;;;;;52.13;38.03;;;8.00;99.90;;;;;;5086425;28;20128;-64
2021/05/01 02:00:20;;;;;;;52.00;37.33;;;8.00;99.90;;;;;;5082826;28;21757;-64
2021/05/01 02:02:46;;;;;;;57.25;37.08;;;8.00;99.90;;;;;;5071014;28;20091;-65
2021/05/01 02:05:12;;;;;;;49.33;35.40;;;8.00;99.90;;;;;;5082057;28;20048;-64
2021/05/01 02:07:39;;;;;;;48.60;34.03;;;8.00;99.90;;;;;;5078622;28;20041;-65
2021/05/01 02:10:07;;;;;;;44.17;32.05;;;8.00;99.90;;;;;;5077083;28;20055;-63
2021/05/01 02:12:37;;;;;;;41.38;31.88;;;8.00;99.90;;;;;;5080362;28;20051;-64
2021/05/01 02:15:17;;;;;;;46.28;31.60;;;8.00;99.90;;;;;;5084592;28;20055;-66
2021/05/01 02:17:49;;;;;;;39.55;30.10;;;8.00;99.90;;;;;;5071978;28;20047;-65
2021/05/01 02:20:19;;;;;;;48.25;33.88;;;8.00;99.90;;;;;;5084015;28;20044;-66
2021/05/01 02:22:44;;;;;;;43.67;31.20;;;8.00;99.90;;;;;;5084674;28;20126;-65
2021/05/01 02:25:12;;;;;;;40.97;30.35;;;8.00;99.90;;;;;;5084082;28;20044;-64
2021/05/01 02:27:40;;;;;;;45.85;33.33;;;8.00;99.90;;;;;;5084150;28;20403;-65
2021/05/01 02:30:12;;;;;;;45.80;32.85;;;8.00;99.90;;;;;;5084104;28;20067;-64
2021/05/01 02:32:39;;;;;;;42.58;32.17;;;8.00;99.90;;;;;;5084263;28;20618;-64
2021/05/01 02:35:08;;;;;;;48.58;34.45;;;8.00;99.90;;;;;;5083778;28;20057;-64
2021/05/01 02:37:34;;;;;;;41.88;31.17;;;8.00;99.90;;;;;;5084278;28;20044;-64
2021/05/01 02:40:00;;;;;;;40.58;30.77;;;7.90;99.90;;;;;;5074029;28;20048;-64
2021/05/01 02:42:26;;;;;;;36.65;28.55;;;7.90;99.90;;;;;;5084029;28;20044;-64
2021/05/01 02:44:52;;;;;;;34.13;27.98;;;7.80;99.90;;;;;;5074657;28;20389;-64
2021/05/01 02:47:19;;;;;;;39.45;29.90;;;7.90;99.90;;;;;;5084611;28;20047;-65
2021/05/01 02:49:45;;;;;;;37.88;28.40;;;7.80;99.90;;;;;;5084245;28;20455;-64
2021/05/01 02:52:11;;;;;;;36.35;28.48;;;7.80;99.90;;;;;;5083844;28;20060;-64
2021/05/01 02:54:36;;;;;;;37.40;28.20;;;7.80;99.90;;;;;;5074350;28;20064;-64
2021/05/01 02:57:02;;;;;;;35.50;27.75;;;7.80;99.90;;;;;;5068746;28;20044;-64
2021/05/01 02:59:28;;;;;;;39.47;29.38;;;7.80;99.90;;;;;;5084042;28;20049;-65
2021/05/01 03:01:54;;;;;;;38.50;29.10;;;7.80;99.90;;;;;;5084289;28;20106;-64
2021/05/01 03:04:20;;;;;;;37.88;29.60;;;7.80;99.90;;;;;;5076437;28;20113;-64
2021/05/01 03:06:45;;;;;;;35.33;26.55;;;7.80;99.90;;;;;;5082347;28;20416;-65
2021/05/01 03:09:11;;;;;;;43.60;30.33;;;7.70;99.90;;;;;;5082316;28;20048;-65
2021/05/01 03:11:37;;;;;;;40.58;27.95;;;7.70;99.90;;;;;;5082982;28;20060;-65
2021/05/01 03:14:03;;;;;;;38.55;29.52;;;7.60;99.90;;;;;;5082139;28;20071;-66
2021/05/01 03:16:29;;;;;;;41.67;30.70;;;7.60;99.90;;;;;;5074443;28;20065;-64
2021/05/01 03:18:54;;;;;;;39.17;30.02;;;7.60;99.90;;;;;;5077344;28;20071;-64
2021/05/01 03:21:20;;;;;;;40.42;30.38;;;7.60;99.90;;;;;;5082970;28;20520;-65
2021/05/01 03:23:48;;;;;;;40.85;30.08;;;7.60;99.90;;;;;;5083526;28;20045;-64
2021/05/01 03:26:16;;;;;;;40.55;29.65;;;7.50;99.90;;;;;;5082634;28;20048;-65
2021/05/01 03:28:42;;;;;;;39.83;29.35;;;7.50;99.90;;;;;;5083322;28;20102;-65
2021/05/01 03:31:07;;;;;;;42.40;30.55;;;7.50;99.90;;;;;;5083093;28;20052;-65
2021/05/01 03:33:34;;;;;;;39.53;28.88;;;7.40;99.90;;;;;;5067159;28;20044;-65
2021/05/01 03:36:01;;;;;;;40.83;30.90;;;7.50;99.90;;;;;;5078038;28;20074;-65
2021/05/01 03:38:27;;;;;;;41.75;30.98;;;7.40;99.90;;;;;;5082665;28;20044;-66
2021/05/01 03:40:53;;;;;;;42.67;31.25;;;7.40;99.90;;;;;;5082663;28;20123;-65
2021/05/01 03:43:20;;;;;;;44.22;29.48;;;7.40;99.90;;;;;;5080621;28;20044;-66
2021/05/01 03:45:46;;;;;;;39.45;29.38;;;7.40;99.90;;;;;;5068418;28;20067;-65
2021/05/01 03:48:13;;;;;;;44.85;30.67;;;7.40;99.90;;;;;;5083073;28;20048;-66
2021/05/01 03:50:39;;;;;;;37.83;28.55;;;7.40;99.90;;;;;;5079213;28;20114;-65
2021/05/01 03:53:05;;;;;;;40.60;28.42;;;7.30;99.90;;;;;;5070161;28;20064;-65
2021/05/01 03:55:30;;;;;;;38.60;28.08;;;7.40;99.90;;;;;;5074514;28;20079;-64
2021/05/01 03:57:56;;;;;;;40.92;29.35;;;7.40;99.90;;;;;;5083063;28;20120;-65
2021/05/01 04:00:23;;;;;;;43.15;29.92;;;7.40;99.90;;;;;;5080892;28;20047;-66
2021/05/01 04:02:50;;;;;;;43.63;30.85;;;7.30;99.90;;;;;;5063626;28;20093;-66
2021/05/01 04:05:15;;;;;;;40.50;29.77;;;7.30;99.90;;;;;;5081607;28;20048;-66
2021/05/01 04:07:42;;;;;;;42.72;32.63;;;7.30;99.90;;;;;;5082376;28;20349;-66
2021/05/01 04:10:09;;;;;;;44.60;32.05;;;7.30;99.90;;;;;;5081725;28;20048;-66
2021/05/01 04:12:35;;;;;;;43.95;31.45;;;7.30;99.90;;;;;;5082496;28;20099;-64
2021/05/01 04:15:01;;;;;;;49.97;34.78;;;7.30;99.90;;;;;;5082368;28;20059;-65
2021/05/01 04:17:26;;;;;;;50.67;34.47;;;7.30;99.90;;;;;;5082083;28;20048;-64
2021/05/01 04:19:52;;;;;;;50.08;34.35;;;7.20;99.90;;;;;;5082357;28;20059;-66
2021/05/01 04:22:21;;;;;;;47.08;33.90;;;7.20;99.90;;;;;;5081976;28;20040;-65
2021/05/01 04:24:47;;;;;;;48.92;34.75;;;7.20;99.90;;;;;;5081662;28;20041;-65
2021/05/01 04:27:13;;;;;;;48.10;34.60;;;7.20;99.90;;;;;;5072320;28;20056;-65
2021/05/01 04:29:39;;;;;;;48.80;34.10;;;7.20;99.90;;;;;;5075743;28;20066;-65
2021/05/01 04:32:05;;;;;;;47.22;34.00;;;7.20;99.90;;;;;;5064958;28;20049;-65
2021/05/01 04:34:31;;;;;;;51.10;34.22;;;7.20;99.90;;;;;;5076029;28;20036;-66
2021/05/01 04:36:57;;;;;;;52.20;36.15;;;7.20;99.90;;;;;;5082517;28;20071;-66
2021/05/01 04:39:23;;;;;;;50.90;36.25;;;7.10;99.90;;;;;;5081570;28;20056;-65
2021/05/01 04:41:49;;;;;;;50.75;33.58;;;7.10;99.90;;;;;;5078132;28;20041;-66
2021/05/01 04:44:15;;;;;;;52.78;35.03;;;7.10;99.90;;;;;;5071827;28;20052;-65
2021/05/01 04:46:41;;;;;;;47.88;34.65;;;7.10;99.90;;;;;;5095030;28;20132;-66
2021/05/01 04:49:08;;;;;;;51.13;34.95;;;7.00;99.90;;;;;;5082285;28;20055;-65
2021/05/01 04:51:35;;;;;;;49.03;35.22;;;7.00;99.90;;;;;;5070648;28;20063;-65
2021/05/01 04:54:04;;;;;;;50.00;34.47;;;7.00;99.90;;;;;;5067926;28;20064;-65
2021/05/01 04:56:30;;;;;;;50.42;35.45;;;7.00;99.90;;;;;;5081629;28;20072;-65
2021/05/01 04:58:56;;;;;;;49.80;34.47;;;7.00;99.90;;;;;;5082204;28;20044;-65
2021/05/01 05:01:22;;;;;;;50.63;35.40;;;7.00;99.90;;;;;;5082890;28;20067;-66
2021/05/01 05:03:48;;;;;;;51.92;37.72;;;7.00;99.90;;;;;;5081234;28;20117;-65
2021/05/01 05:06:14;;;;;;;55.33;36.40;;;7.00;99.90;;;;;;5072906;28;20048;-66
2021/05/01 05:08:40;;;;;;;51.78;36.53;;;7.00;99.90;;;;;;5079295;28;20083;-66
2021/05/01 05:11:06;;;;;;;54.28;37.67;;;7.00;99.90;;;;;;5077630;28;20045;-65
2021/05/01 05:13:31;;;;;;;54.72;36.72;;;7.10;99.90;;;;;;5083627;28;20047;-66
2021/05/01 05:15:57;;;;;;;52.15;36.67;;;7.00;99.90;;;;;;5076778;28;20041;-65
2021/05/01 05:18:26;;;;;;;52.50;36.10;;;7.10;99.90;;;;;;5073389;28;20121;-65
2021/05/01 05:20:52;;;;;;;53.35;36.78;;;7.10;99.90;;;;;;5081471;28;20049;-66
2021/05/01 05:23:17;;;;;;;54.03;37.28;;;7.10;99.90;;;;;;5081881;28;20060;-66
2021/05/01 05:25:43;;;;;;;53.97;35.92;;;7.10;99.90;;;;;;5081836;28;20130;-66
2021/05/01 05:28:09;;;;;;;48.25;34.53;;;7.10;99.90;;;;;;5076334;28;20051;-66
2021/05/01 05:30:35;;;;;;;56.72;38.60;;;7.10;99.90;;;;;;5081577;28;20047;-66
2021/05/01 05:33:01;;;;;;;53.75;36.50;;;7.00;99.90;;;;;;5080980;28;20063;-66
2021/05/01 05:35:27;;;;;;;57.45;36.42;;;7.00;99.90;;;;;;5067388;28;20056;-67
2021/05/01 05:37:53;;;;;;;40.95;27.00;;;7.00;99.90;;;;;;5073222;28;20066;-67
2021/05/01 05:40:19;;;;;;;57.67;37.30;;;6.90;99.90;;;;;;5073085;28;20048;-66
2021/05/01 05:42:48;;;;;;;55.85;37.03;;;6.90;99.90;;;;;;5080497;28;20045;-66
2021/05/01 05:45:21;;;;;;;61.83;39.13;;;6.90;99.90;;;;;;5081216;28;20041;-65
2021/05/01 05:47:47;;;;;;;60.53;38.97;;;7.00;99.90;;;;;;5076595;28;20122;-66
2021/05/01 05:50:12;;;;;;;59.45;39.28;;;7.00;99.90;;;;;;5073147;28;20047;-66
2021/05/01 05:52:39;;;;;;;51.95;35.25;;;7.10;99.90;;;;;;5080645;28;20059;-65
2021/05/01 05:55:05;;;;;;;52.58;36.15;;;7.00;99.90;;;;;;5084616;28;20418;-67
2021/05/01 05:57:31;;;;;;;54.90;36.80;;;7.10;99.90;;;;;;5085182;28;20041;-66
2021/05/01 05:59:57;;;;;;;51.30;34.72;;;7.10;99.90;;;;;;5085161;28;20048;-66
2021/05/01 06:02:24;;;;;;;47.00;33.38;;;7.20;99.90;;;;;;5085856;28;20075;-65
2021/05/01 06:05:00;;;;;;;39.70;29.30;;;7.30;99.90;;;;;;5086137;28;20052;-66
2021/05/01 06:07:37;;;;;;;40.22;29.05;;;7.30;99.90;;;;;;5084262;28;20306;-67
2021/05/01 06:10:07;;;;;;;36.47;27.85;;;7.50;99.90;;;;;;5065692;28;20353;-65
2021/05/01 06:12:34;;;;;;;34.58;27.10;;;7.50;99.90;;;;;;5084951;28;20036;-66
2021/05/01 06:15:09;;;;;;;32.22;26.00;;;7.50;99.90;;;;;;5085620;28;20056;-66
2021/05/01 06:17:36;;;;;;;32.92;24.95;;;7.50;99.90;;;;;;5079913;28;20039;-66
2021/05/01 06:20:04;;;;;;;31.00;22.35;;;7.50;99.90;;;;;;5085265;28;20051;-66
2021/05/01 06:22:30;;;;;;;27.63;21.92;;;7.50;99.90;;;;;;5085109;28;20048;-67
2021/05/01 06:24:56;;;;;;;28.80;22.38;;;7.40;99.90;;;;;;5084145;28;20040;-67
2021/05/01 06:27:22;;;;;;;24.63;20.42;;;7.50;99.90;;;;;;5077551;28;20102;-67
2021/05/01 06:29:48;;;;;;;23.85;19.70;;;7.60;99.90;;;;;;5083784;28;20131;-66
2021/05/01 06:32:16;;;;;;;25.88;19.02;;;7.70;99.90;;;;;;5084303;28;20044;-67
2021/05/01 06:34:51;;;;;;;21.02;17.80;;;7.90;99.90;;;;;;5083441;28;20043;-68
2021/05/01 06:37:19;;;;;;;23.30;17.83;;;8.00;99.90;;;;;;5084908;28;20040;-66
2021/05/01 06:39:47;;;;;;;19.35;16.73;;;8.20;99.90;;;;;;5084013;28;20049;-66
2021/05/01 06:42:28;;;;;;;;;;;8.30;99.90;;;;;;5085063;28;20045;-67
2021/05/01 06:45:16;;;;;;;18.25;14.82;;;8.50;99.90;;;;;;5082848;28;19921;-66
2021/05/01 06:47:54;;;;;;;18.98;14.82;;;8.70;99.90;;;;;;5082957;28;20082;-67
2021/05/01 06:50:26;;;;;;;19.52;14.77;;;8.70;99.90;;;;;;5083960;28;20062;-67
2021/05/01 06:52:54;;;;;;;18.65;15.07;;;8.80;99.90;;;;;;5073268;28;20064;-66
2021/05/01 06:55:23;;;;;;;18.08;13.68;;;8.80;99.90;;;;;;5079100;28;20060;-67
2021/05/01 06:57:51;;;;;;;16.85;13.93;;;8.80;99.90;;;;;;5084136;28;20041;-66
2021/05/01 07:00:19;;;;;;;17.98;13.68;;;8.90;99.90;;;;;;5083332;28;20040;-68
2021/05/01 07:02:49;;;;;;;17.73;13.07;;;8.80;99.90;;;;;;5083149;28;20115;-68
2021/05/01 07:05:23;;;;;;;16.27;13.38;;;8.80;99.90;;;;;;5083866;28;20076;-67
2021/05/01 07:07:49;;;;;;;17.42;14.05;;;8.80;99.90;;;;;;5084283;28;20048;-67
2021/05/01 07:10:17;;;;;;;14.45;11.30;;;8.90;99.90;;;;;;5083739;28;20040;-67
2021/05/01 07:12:44;;;;;;;15.48;11.93;;;9.10;99.90;;;;;;5079097;28;20122;-68
2021/05/01 07:15:13;;;;;;;14.37;12.87;;;9.30;99.90;;;;;;5072646;28;20048;-67
2021/05/01 07:17:39;;;;;;;15.98;12.50;;;9.40;99.90;;;;;;5082648;28;20310;-68
2021/05/01 07:20:08;;;;;;;13.98;11.85;;;9.50;99.90;;;;;;5082554;28;20074;-68
2021/05/01 07:22:34;;;;;;;13.75;10.95;;;9.70;99.90;;;;;;5078476;28;20051;-68
2021/05/01 07:25:06;;;;;;;16.30;11.95;;;9.80;99.90;;;;;;5080927;28;20551;-68
2021/05/01 07:27:53;;;;;;;12.25;9.57;;;9.90;99.90;;;;;;5084256;28;20536;-68
2021/05/01 07:30:21;;;;;;;9.90;7.68;;;9.80;99.90;;;;;;5080529;28;20062;-68
2021/05/01 07:32:51;;;;;;;10.45;7.78;;;9.60;99.90;;;;;;5078505;28;20096;-68
2021/05/01 07:35:18;;;;;;;9.20;8.27;;;9.70;99.90;;;;;;5080444;28;20492;-68
2021/05/01 07:37:49;;;;;;;9.40;7.43;;;9.70;99.90;;;;;;5078765;28;20046;-68
2021/05/01 07:40:24;;;;;;;9.23;7.32;;;9.80;99.90;;;;;;5074367;28;20048;-68
2021/05/01 07:42:51;;;;;;;8.27;7.38;;;9.80;99.90;;;;;;5083330;28;20052;-67
2021/05/01 07:45:22;;;;;;;9.07;8.15;;;10.00;99.90;;;;;;5079887;28;20048;-69
2021/05/01 07:47:54;;;;;;;8.50;7.40;;;10.00;99.90;;;;;;5083203;28;20148;-68
2021/05/01 07:50:20;;;;;;;11.93;8.88;;;9.90;99.90;;;;;;5081522;28;20040;-68
2021/05/01 07:52:46;;;;;;;10.23;9.13;;;9.90;99.90;;;;;;5074346;28;20106;-69
2021/05/01 07:55:13;;;;;;;11.50;8.68;;;10.00;99.90;;;;;;5074206;28;20045;-68
2021/05/01 07:57:39;;;;;;;10.27;9.18;;;10.10;99.90;;;;;;5079695;28;20052;-68
2021/05/01 08:00:06;;;;;;;11.45;9.60;;;10.30;99.90;;;;;;5081298;28;20123;-68
2021/05/01 08:02:34;;;;;;;11.68;9.65;;;10.50;99.90;;;;;;5081195;28;20118;-68
2021/05/01 08:05:01;;;;;;;16.48;10.65;;;10.60;99.90;;;;;;5077877;28;20048;-68
2021/05/01 08:07:27;;;;;;;12.20;10.13;;;10.50;99.90;;;;;;5080245;28;20309;-68
2021/05/01 08:09:52;;;;;;;15.10;10.35;;;10.70;99.90;;;;;;5079010;28;20062;-69
2021/05/01 08:12:18;;;;;;;12.15;10.45;;;10.80;99.90;;;;;;5079028;28;20053;-68
2021/05/01 08:14:44;;;;;;;11.43;10.20;;;11.00;99.90;;;;;;5080561;28;20068;-69
2021/05/01 08:17:10;;;;;;;12.90;10.48;;;10.90;99.90;;;;;;5081391;28;20053;-68
2021/05/01 08:19:36;;;;;;;13.07;10.95;;;10.80;99.90;;;;;;5076519;28;20048;-68
2021/05/01 08:22:02;;;;;;;16.10;10.40;;;10.90;99.90;;;;;;5077903;28;20063;-68
2021/05/01 08:24:28;;;;;;;14.00;10.68;;;10.70;99.90;;;;;;5082372;28;20055;-68
2021/05/01 08:26:53;;;;;;;13.75;10.85;;;10.70;99.90;;;;;;5073729;28;20041;-68
2021/05/01 08:29:19;;;;;;;16.10;11.15;;;10.60;99.90;;;;;;5078595;28;20051;-68
2021/05/01 08:31:45;;;;;;;14.57;11.20;;;10.80;99.90;;;;;;5081751;28;20052;-70
2021/05/01 08:34:11;;;;;;;13.38;11.52;;;11.10;99.90;;;;;;5079548;28;20044;-69
2021/05/01 08:36:36;;;;;;;14.27;11.23;;;11.40;99.90;;;;;;5082630;28;20434;-69
2021/05/01 08:39:03;;;;;;;14.25;10.75;;;11.60;99.90;;;;;;5078235;28;20237;-69
2021/05/01 08:41:29;;;;;;;14.02;10.65;;;11.90;99.90;;;;;;5081220;28;20037;-69
2021/05/01 08:44:08;;;;;;;14.98;10.90;;;11.60;99.90;;;;;;5083776;28;20105;-68
2021/05/01 08:46:34;;;;;;;12.52;9.85;;;11.00;99.90;;;;;;5077667;28;20041;-69
2021/05/01 08:49:02;;;;;;;17.10;12.10;;;10.70;99.90;;;;;;5082690;28;20048;-68
2021/05/01 08:51:28;;;;;;;16.70;14.05;;;10.60;99.90;;;;;;5078617;28;20052;-68
2021/05/01 08:53:54;;;;;;;18.08;13.35;;;10.40;99.90;;;;;;5076860;28;20123;-69
2021/05/01 08:56:19;;;;;;;18.10;13.27;;;10.40;99.90;;;;;;5077802;28;20076;-68
2021/05/01 08:58:47;;;;;;;18.10;14.90;;;10.50;99.90;;;;;;5080060;28;20036;-69
2021/05/01 09:01:14;;;;;;;;;;;10.30;99.90;;;;;;5079950;28;20071;-69
2021/05/01 09:03:42;;;;;;;17.40;14.45;;;10.20;99.90;;;;;;5073896;28;20300;-69
2021/05/01 09:06:09;;;;;;;16.13;13.80;;;10.30;99.90;;;;;;5079761;28;20052;-69
2021/05/01 09:08:41;;;;;;;21.02;15.13;;;10.30;99.90;;;;;;5083929;28;20040;-71
2021/05/01 09:11:08;;;;;;;19.02;13.48;;;10.30;99.90;;;;;;5079037;28;20071;-69
2021/05/01 09:13:45;;;;;;;20.35;16.45;;;10.10;99.90;;;;;;5082486;28;20074;-69
2021/05/01 09:16:14;;;;;;;20.30;16.70;;;10.10;99.90;;;;;;5084514;28;20074;-69
2021/05/01 09:18:58;;;;;;;16.50;14.70;;;10.00;99.90;;;;;;5083118;28;20112;-69
2021/05/01 09:21:29;;;;;;;21.25;16.17;;;10.00;99.90;;;;;;5081278;28;20040;-69
2021/05/01 09:23:56;;;;;;;22.40;15.45;;;10.10;99.90;;;;;;5083866;28;20096;-69
2021/05/01 09:26:44;;;;;;;17.20;15.07;;;10.00;99.90;;;;;;5085098;28;20048;-69
2021/05/01 09:29:10;;;;;;;18.63;14.32;;;9.80;99.90;;;;;;5075989;28;20067;-69
2021/05/01 09:31:45;;;;;;;19.60;14.55;;;9.80;99.90;;;;;;5076510;28;20131;-69
2021/05/01 09:34:11;;;;;;;19.17;16.13;;;9.70;99.90;;;;;;5079953;28;20075;-68
2021/05/01 09:36:38;;;;;;;15.57;13.77;;;9.70;99.90;;;;;;5085414;28;20048;-68
2021/05/01 09:39:08;;;;;;;16.00;13.43;;;9.70;99.90;;;;;;5082665;28;20048;-68
2021/05/01 09:41:39;;;;;;;17.40;14.95;;;9.60;99.90;;;;;;5084750;28;20066;-68
2021/05/01 09:44:06;;;;;;;22.52;13.63;;;9.70;99.90;;;;;;5083976;28;20074;-68
2021/05/01 09:46:43;;;;;;;19.00;14.35;;;9.60;99.90;;;;;;5083782;28;20047;-67
2021/05/01 09:49:23;;;;;;;18.77;14.85;;;9.70;99.90;;;;;;5078438;28;20052;-68
2021/05/01 09:52:11;;;;;;;17.85;15.05;;;9.60;99.90;;;;;;5085755;28;20037;-68
2021/05/01 09:54:42;;;;;;;19.63;15.25;;;9.70;99.90;;;;;;5070882;28;20048;-67
2021/05/01 09:57:10;;;;;;;16.77;13.55;;;9.90;99.90;;;;;;5083152;28;20510;-67
2021/05/01 09:59:43;;;;;;;23.38;14.18;;;9.90;99.90;;;;;;5076257;28;20045;-69
2021/05/01 10:02:11;;;;;;;19.17;14.90;;;9.90;99.90;;;;;;5078748;28;20045;-67
2021/05/01 10:04:38;;;;;;;18.17;13.27;;;10.10;99.90;;;;;;5084673;28;20059;-67
2021/05/01 10:07:11;;;;;;;18.77;13.38;;;10.10;99.90;;;;;;5082834;28;20037;-67
2021/05/01 10:09:42;;;;;;;16.52;13.55;;;10.00;99.90;;;;;;5083362;28;20040;-67
2021/05/01 10:12:10;;;;;;;17.80;13.55;;;10.20;99.90;;;;;;5081955;28;20545;-68
2021/05/01 10:14:48;;;;;;;18.30;13.52;;;10.20;99.90;;;;;;5083636;28;20051;-68
2021/05/01 10:17:37;;;;;;;17.03;12.17;;;10.30;99.90;;;;;;5075378;28;20534;-67
2021/05/01 10:20:08;;;;;;;14.35;11.27;;;10.30;99.90;;;;;;5081217;28;20570;-67
2021/05/01 10:22:44;;;;;;;17.27;12.65;;;10.30;99.90;;;;;;5081772;28;20051;-69
2021/05/01 10:25:18;;;;;;;15.30;12.20;;;10.50;99.90;;;;;;5076263;28;20044;-67
2021/05/01 10:27:49;;;;;;;14.95;12.77;;;10.60;99.90;;;;;;5076396;28;20068;-66
2021/05/01 10:36:09;;;;;;;14.15;9.95;;;11.30;99.90;;;;;;5074981;28;20050;-69
2021/05/01 10:38:37;;;;;;;11.70;9.48;;;11.60;99.90;;;;;;5071211;28;20052;-70
2021/05/01 10:41:05;;;;;;;11.18;9.23;;;12.00;99.90;;;;;;5076856;28;20485;-67
2021/05/01 10:47:13;;;;;;;12.95;10.13;;;12.10;99.90;;;;;;5074201;28;20071;-66
2021/05/01 10:49:39;;;;;;;11.77;8.87;;;12.10;99.90;;;;;;5077450;28;20492;-70
2021/05/01 10:52:19;;;;;;;12.15;10.18;;;12.00;99.70;;;;;;5076281;28;20060;-68
2021/05/01 10:55:06;;;;;;;15.10;10.27;;;12.00;99.00;;;;;;5068798;28;20049;-68
2021/05/01 10:57:35;;;;;;;12.60;9.80;;;12.00;99.90;;;;;;5078165;28;20102;-67
2021/05/01 11:00:09;;;;;;;11.18;9.10;;;12.20;99.90;;;;;;5078318;28;20075;-70
2021/05/01 11:02:36;;;;;;;11.77;8.77;;;12.20;99.90;;;;;;5079615;28;20044;-70
2021/05/01 11:05:05;;;;;;;12.77;8.15;;;12.10;99.90;;;;;;5080165;28;20048;-70
2021/05/01 11:07:42;;;;;;;10.57;8.20;;;12.20;99.90;;;;;;5079943;28;20052;-71
2021/05/01 11:10:11;;;;;;;6.13;4.20;;;12.00;99.00;;;;;;5079644;28;20075;-66
2021/05/01 11:12:47;;;;;;;5.15;4.63;;;10.90;99.00;;;;;;5083050;28;20087;-65
2021/05/01 11:15:13;;;;;;;6.65;5.50;;;10.40;99.50;;;;;;5078665;28;20044;-64
2021/05/01 11:17:39;;;;;;;7.32;5.57;;;10.10;99.90;;;;;;5078636;28;20041;-64
2021/05/01 11:20:11;;;;;;;7.70;6.53;;;10.00;99.90;;;;;;5082111;28;20037;-64
2021/05/01 11:22:42;;;;;;;7.88;6.13;;;9.90;99.90;;;;;;5080051;28;20096;-67
2021/05/01 11:25:20;;;;;;;8.13;5.82;;;9.90;99.90;;;;;;5075255;28;20056;-72
2021/05/01 11:27:48;;;;;;;7.93;6.53;;;9.80;99.90;;;;;;5079487;28;20053;-72
2021/05/01 11:30:17;;;;;;;6.65;5.95;;;9.80;99.90;;;;;;5081391;28;20048;-72
2021/05/01 11:32:43;;;;;;;7.57;6.70;;;9.90;99.90;;;;;;5078015;28;20093;-72
2021/05/01 11:35:14;;;;;;;8.57;6.53;;;10.20;99.90;;;;;;5082254;28;20102;-72
2021/05/01 11:37:49;;;;;;;7.78;6.03;;;10.30;99.90;;;;;;5077840;28;20040;-72
2021/05/01 11:40:16;;;;;;;7.10;6.30;;;10.50;99.90;;;;;;5075495;28;20052;-71
2021/05/01 11:42:43;;;;;;;;;;;10.80;99.90;;;;;;5079190;28;20058;-69
2021/05/01 11:45:15;;;;;;;7.07;6.10;;;10.80;99.90;;;;;;5079884;28;19920;-70
2021/05/01 11:47:48;;;;;;;7.93;6.32;;;10.60;99.90;;;;;;5082466;28;20520;-69
2021/05/01 11:50:14;;;;;;;7.35;6.50;;;10.80;99.90;;;;;;5081799;28;20048;-68
2021/05/01 11:53:25;;;;;;;7.35;6.53;;;10.80;99.90;;;;;;5081734;28;20543;-69
2021/05/01 11:55:59;;;;;;;8.18;6.78;;;11.00;99.90;;;;;;5019325;28;20049;-69
2021/05/01 11:58:28;;;;;;;9.35;7.22;;;11.30;99.90;;;;;;5023658;28;20057;-69
2021/05/01 12:00:54;;;;;;;9.10;7.32;;;11.20;99.90;;;;;;5018599;28;20053;-70
2021/05/01 12:03:20;;;;;;;8.25;6.57;;;11.00;99.90;;;;;;5020177;28;20161;-69
2021/05/01 12:05:54;;;;;;;8.82;7.65;;;11.10;99.90;;;;;;5020227;28;20057;-66
2021/05/01 12:08:22;;;;;;;8.13;7.28;;;11.10;99.90;;;;;;5018661;28;20072;-71
2021/05/01 12:10:50;;;;;;;10.07;7.38;;;10.80;99.90;;;;;;5020692;28;20046;-71
2021/05/01 12:13:32;;;;;;;8.45;7.50;;;11.00;99.90;;;;;;5019597;28;20053;-67
2021/05/01 12:15:59;;;;;;;8.60;7.68;;;11.00;99.90;;;;;;5020099;28;20129;-66
2021/05/01 12:18:52;;;;;;;10.13;8.30;;;10.90;99.90;;;;;;5022502;28;20057;-65
2021/05/01 12:21:23;;;;;;;10.55;7.57;;;11.00;99.90;;;;;;5020019;28;20053;-64
2021/05/01 12:23:52;;;;;;;9.98;7.80;;;11.10;99.90;;;;;;5020253;28;20053;-63
2021/05/01 12:26:36;;;;;;;9.63;6.95;;;11.20;99.90;;;;;;5020208;28;20104;-65
2021/05/01 12:32:05;;;;;;;10.30;8.10;;;11.80;99.70;;;;;;5079479;28;20045;-66
2021/05/01 12:34:46;;;;;;;10.23;8.02;;;11.80;99.20;;;;;;5081817;28;20518;-66
2021/05/01 12:37:13;;;;;;;8.88;7.18;;;12.00;99.10;;;;;;5077844;28;20041;-66
2021/05/01 12:39:40;;;;;;;11.23;7.45;;;12.00;98.40;;;;;;5080531;28;20070;-67
2021/05/01 12:42:30;;;;;;;11.00;7.05;;;12.10;99.80;;;;;;5079938;28;20090;-67
2021/05/01 12:44:58;;;;;;;8.63;7.40;;;12.30;99.30;;;;;;5080026;28;20044;-66
2021/05/01 12:47:36;;;;;;;8.50;6.65;;;12.40;99.60;;;;;;5083320;28;20041;-68
2021/05/01 12:50:17;;;;;;;8.23;6.90;;;12.50;98.80;;;;;;5080073;28;20102;-65
2021/05/01 12:52:43;;;;;;;8.35;6.88;;;12.40;97.90;;;;;;5074272;28;20113;-72
2021/05/01 12:55:10;;;;;;;8.55;6.40;;;12.40;97.70;;;;;;5072195;28;20139;-73
2021/05/01 12:57:37;;;;;;;12.55;7.55;;;12.50;95.90;;;;;;5081180;28;20036;-72
2021/05/01 13:00:23;;;;;;;7.47;6.63;;;13.20;98.20;;;;;;5078813;28;20047;-73
2021/05/01 13:03:21;;;;;;;7.80;6.82;;;14.00;96.40;;;;;;5076896;28;20087;-73